Time;durP1;ratioP1;P1;durP2;ratioP2;P2;SDS_P1;SDS_P2;PMS_P1;PMS_P2;Temp;Humidity;BMP_temperature;BMP_pressure;BME280_temperature;BME280_humidity;BME280_pressure;Samples;Min_cycle;Max_cycle;Signal;HPM_P1;HPM_P2
2021/12/04 00:02:21;;;;;;;18.23;13.30;;;4.50;99.90;;;;;;5047003;28;20211;-45
2021/12/04 00:04:50;;;;;;;17.53;12.53;;;4.50;99.90;;;;;;5064447;28;20203;-42
2021/12/04 00:07:17;;;;;;;17.10;12.83;;;4.50;99.90;;;;;;5058399;28;20947;-43
2021/12/04 00:09:46;;;;;;;17.17;13.00;;;4.50;99.90;;;;;;5051600;28;20198;-43
2021/12/04 00:12:13;;;;;;;19.93;12.50;;;4.50;99.90;;;;;;5057409;28;20207;-45
2021/12/04 00:14:41;;;;;;;15.87;12.47;;;4.50;99.90;;;;;;5059797;28;20197;-44
2021/12/04 00:17:08;;;;;;;16.87;13.37;;;4.50;99.90;;;;;;5064318;28;20232;-45
2021/12/04 00:19:35;;;;;;;19.40;14.33;;;4.50;99.90;;;;;;5050055;28;20927;-45
2021/12/04 00:22:02;;;;;;;17.57;13.13;;;4.50;99.90;;;;;;5067017;28;20207;-47
2021/12/04 00:24:29;;;;;;;16.17;13.37;;;4.60;99.90;;;;;;5063295;28;20198;-42
2021/12/04 00:26:58;;;;;;;15.33;12.10;;;4.60;99.90;;;;;;5061976;28;20206;-47
2021/12/04 00:29:25;;;;;;;18.17;13.23;;;4.60;99.90;;;;;;5049887;28;20206;-44
2021/12/04 00:31:56;;;;;;;18.23;14.03;;;4.50;99.90;;;;;;5074517;28;20195;-45
2021/12/04 00:34:25;;;;;;;20.83;12.67;;;4.50;99.90;;;;;;5054149;28;20213;-43
2021/12/04 00:37:07;;;;;;;19.33;14.70;;;4.60;99.90;;;;;;5064629;28;20205;-47
2021/12/04 00:50:44;;;;;;;21.77;16.13;;;4.50;99.90;;;;;;5060052;28;20873;-43
2021/12/04 00:53:10;;;;;;;23.67;16.47;;;4.50;99.90;;;;;;5066568;28;20198;-43
2021/12/04 00:55:37;;;;;;;24.60;16.30;;;4.50;99.90;;;;;;5062409;28;20214;-48
2021/12/04 00:58:05;;;;;;;23.60;16.73;;;4.60;99.90;;;;;;5066217;28;20587;-46
2021/12/04 01:00:32;;;;;;;23.77;16.80;;;4.50;99.90;;;;;;5057546;28;20894;-43
2021/12/04 01:02:58;;;;;;;25.00;16.93;;;4.60;99.90;;;;;;5066507;28;20207;-42
2021/12/04 01:05:25;;;;;;;25.47;18.00;;;4.60;99.90;;;;;;5048608;28;20394;-43
2021/12/04 01:07:52;;;;;;;25.40;16.97;;;4.50;99.90;;;;;;5065045;28;20206;-44
2021/12/04 01:10:19;;;;;;;26.93;16.07;;;4.50;99.90;;;;;;5064700;28;20563;-43
2021/12/04 01:12:45;;;;;;;26.07;17.67;;;4.50;99.90;;;;;;5064032;28;20201;-43
2021/12/04 01:15:13;;;;;;;27.47;18.67;;;4.60;99.90;;;;;;5061267;28;20210;-43
2021/12/04 01:17:40;;;;;;;28.87;18.87;;;4.60;99.90;;;;;;5071989;28;20222;-44
2021/12/04 01:20:07;;;;;;;26.53;16.03;;;4.60;99.90;;;;;;5085656;28;20273;-42
2021/12/04 01:22:34;;;;;;;33.07;18.73;;;4.50;99.90;;;;;;5048895;28;20206;-47
2021/12/04 01:25:01;;;;;;;24.50;17.33;;;4.60;99.90;;;;;;5065938;28;20210;-44
2021/12/04 01:27:28;;;;;;;30.37;18.50;;;4.60;99.90;;;;;;5058070;28;20219;-46
2021/12/04 01:29:54;;;;;;;26.97;17.30;;;4.60;99.90;;;;;;5065071;28;20204;-48
2021/12/04 01:32:22;;;;;;;27.67;17.97;;;4.60;99.90;;;;;;5072929;28;20267;-42
2021/12/04 01:34:49;;;;;;;28.43;17.97;;;4.60;99.90;;;;;;5082666;28;20209;-46
2021/12/04 01:37:16;;;;;;;25.27;16.87;;;4.50;99.90;;;;;;5049445;28;20233;-45
2021/12/04 01:39:42;;;;;;;27.37;17.87;;;4.50;99.90;;;;;;5062998;28;20706;-43
2021/12/04 01:42:09;;;;;;;25.73;17.20;;;4.60;99.90;;;;;;5065793;28;20206;-47
2021/12/04 01:44:36;;;;;;;22.63;15.00;;;4.60;99.90;;;;;;5061597;28;20202;-44
2021/12/04 01:47:12;;;;;;;24.10;16.33;;;4.60;99.90;;;;;;5060523;28;20210;-45
2021/12/04 01:49:40;;;;;;;28.13;17.77;;;4.60;99.90;;;;;;5078650;28;20201;-47
2021/12/04 01:52:08;;;;;;;25.57;16.83;;;4.60;99.90;;;;;;5064778;28;20327;-43
2021/12/04 01:54:34;;;;;;;27.20;16.30;;;4.60;99.90;;;;;;5061284;28;20217;-42
2021/12/04 01:57:01;;;;;;;23.20;14.93;;;4.60;99.90;;;;;;5064775;28;20202;-42
2021/12/04 01:59:29;;;;;;;24.20;15.13;;;4.50;99.90;;;;;;5061594;28;20213;-42
2021/12/04 02:01:56;;;;;;;22.87;15.33;;;4.60;99.90;;;;;;5059457;28;20246;-42
2021/12/04 02:04:23;;;;;;;24.93;14.27;;;4.50;99.90;;;;;;5079268;28;20198;-43
2021/12/04 02:06:51;;;;;;;20.93;14.53;;;4.60;99.90;;;;;;5033106;28;20922;-46
2021/12/04 02:09:18;;;;;;;20.03;14.33;;;4.60;99.90;;;;;;5063457;28;20213;-42
2021/12/04 02:11:45;;;;;;;22.67;14.20;;;4.60;99.90;;;;;;5062683;28;20916;-41
2021/12/04 02:14:12;;;;;;;23.20;14.90;;;4.50;99.90;;;;;;5061750;28;20206;-44
2021/12/04 02:16:39;;;;;;;18.77;13.77;;;4.50;99.90;;;;;;5056753;28;20256;-44
2021/12/04 02:19:06;;;;;;;23.17;15.73;;;4.50;99.90;;;;;;5063482;28;20632;-42
2021/12/04 02:21:34;;;;;;;21.57;14.33;;;4.50;99.90;;;;;;5062978;28;20707;-42
2021/12/04 02:24:01;;;;;;;20.73;13.40;;;4.50;99.90;;;;;;5050314;28;20218;-42
2021/12/04 02:26:27;;;;;;;22.03;13.33;;;4.50;99.90;;;;;;5062278;28;20568;-44
2021/12/04 02:28:56;;;;;;;22.80;14.23;;;4.50;99.90;;;;;;5064318;28;20218;-42
2021/12/04 02:31:23;;;;;;;20.57;14.60;;;4.50;99.90;;;;;;5056930;28;20344;-44
2021/12/04 02:33:50;;;;;;;21.07;14.10;;;4.50;99.90;;;;;;5067142;28;20208;-46
2021/12/04 02:36:16;;;;;;;23.40;14.07;;;4.50;99.90;;;;;;5079620;28;20198;-46
2021/12/04 02:38:49;;;;;;;21.70;14.23;;;4.50;99.90;;;;;;5065061;28;20714;-43
2021/12/04 02:41:16;;;;;;;20.37;14.40;;;4.50;99.90;;;;;;5059584;28;20213;-44
2021/12/04 02:43:43;;;;;;;23.60;14.50;;;4.50;99.90;;;;;;5064273;28;20209;-44
2021/12/04 02:46:09;;;;;;;20.90;13.77;;;4.50;99.90;;;;;;5060626;28;20203;-44
2021/12/04 02:48:36;;;;;;;21.07;13.77;;;4.50;99.90;;;;;;5062220;28;20222;-42
2021/12/04 02:51:03;;;;;;;19.90;13.13;;;4.50;99.90;;;;;;5081433;28;20197;-43
2021/12/04 02:53:29;;;;;;;24.40;14.40;;;4.50;99.90;;;;;;5057348;28;20328;-42
2021/12/04 02:55:57;;;;;;;24.43;14.67;;;4.50;99.90;;;;;;5070647;28;20206;-42
2021/12/04 02:58:24;;;;;;;22.70;14.37;;;4.50;99.90;;;;;;5061071;28;20229;-43
2021/12/04 03:00:51;;;;;;;23.10;14.40;;;4.50;99.90;;;;;;5064178;28;20225;-41
2021/12/04 03:03:19;;;;;;;24.07;15.13;;;4.50;99.90;;;;;;5055252;28;20225;-42
2021/12/04 03:05:49;;;;;;;21.50;13.60;;;4.50;99.90;;;;;;5073200;28;20683;-41
2021/12/04 03:08:16;;;;;;;23.07;14.47;;;4.50;99.90;;;;;;5079182;28;20753;-43
2021/12/04 03:10:43;;;;;;;22.40;14.47;;;4.50;99.90;;;;;;5055736;28;20678;-42
2021/12/04 03:13:11;;;;;;;23.47;14.87;;;4.50;99.90;;;;;;5060079;28;20793;-42
2021/12/04 03:15:42;;;;;;;24.50;15.10;;;4.50;99.90;;;;;;5063941;28;20206;-44
2021/12/04 03:18:09;;;;;;;29.60;16.10;;;4.50;99.90;;;;;;5060305;28;20363;-46
2021/12/04 03:20:41;;;;;;;24.17;14.97;;;4.50;99.90;;;;;;5058478;28;20209;-41
2021/12/04 03:23:14;;;;;;;25.13;15.23;;;4.50;99.90;;;;;;5071236;28;20619;-42
2021/12/04 03:25:43;;;;;;;22.53;15.63;;;4.50;99.90;;;;;;5051379;28;20213;-42
2021/12/04 03:28:13;;;;;;;21.47;14.73;;;4.50;99.90;;;;;;5058334;28;20295;-45
2021/12/04 03:30:44;;;;;;;24.13;14.90;;;4.50;99.90;;;;;;5080770;28;20198;-45
2021/12/04 03:41:35;;;;;;;27.57;16.17;;;4.50;99.90;;;;;;5041859;28;20257;-42
2021/12/04 03:44:03;;;;;;;28.07;17.50;;;4.40;99.90;;;;;;5060846;28;20690;-43
2021/12/04 03:46:30;;;;;;;27.43;15.87;;;4.50;99.90;;;;;;5062677;28;20207;-45
2021/12/04 03:48:56;;;;;;;26.70;16.43;;;4.50;99.90;;;;;;5060148;28;20206;-41
2021/12/04 03:51:23;;;;;;;26.87;18.00;;;4.50;99.90;;;;;;5058530;28;20206;-43
2021/12/04 03:53:50;;;;;;;28.97;17.07;;;4.50;99.90;;;;;;5066163;28;20190;-42
2021/12/04 03:56:21;;;;;;;24.87;16.23;;;4.50;99.90;;;;;;5047296;28;20289;-42
2021/12/04 03:58:48;;;;;;;29.77;16.50;;;4.50;99.90;;;;;;5058682;28;20218;-43
2021/12/04 04:01:16;;;;;;;26.00;16.40;;;4.50;99.90;;;;;;5063359;28;20202;-42
2021/12/04 04:03:42;;;;;;;26.80;15.70;;;4.50;99.90;;;;;;5060571;28;20240;-42
2021/12/04 04:06:09;;;;;;;31.13;17.23;;;4.50;99.90;;;;;;5057718;28;20209;-47
2021/12/04 04:08:36;;;;;;;32.30;18.17;;;4.50;99.90;;;;;;5059492;28;20213;-44
2021/12/04 04:11:03;;;;;;;27.13;17.67;;;4.50;99.90;;;;;;5060804;28;20308;-41
2021/12/04 04:13:29;;;;;;;27.63;17.77;;;4.50;99.90;;;;;;5068193;28;20286;-42
2021/12/04 04:15:58;;;;;;;28.80;17.90;;;4.50;99.90;;;;;;5061722;28;20203;-43
2021/12/04 04:18:27;;;;;;;30.77;18.70;;;4.50;99.90;;;;;;5043378;28;20584;-43
2021/12/04 04:20:53;;;;;;;31.70;19.20;;;4.50;99.90;;;;;;5061625;28;20194;-44
2021/12/04 04:23:20;;;;;;;30.50;19.67;;;4.50;99.90;;;;;;5057341;28;20206;-42
2021/12/04 04:25:47;;;;;;;31.97;19.27;;;4.50;99.90;;;;;;5061953;28;20248;-42
2021/12/04 04:28:13;;;;;;;35.07;18.70;;;4.50;99.90;;;;;;5049085;28;20234;-45
2021/12/04 04:30:40;;;;;;;37.67;20.37;;;4.50;99.90;;;;;;5059266;28;20791;-42
2021/12/04 04:33:09;;;;;;;37.57;19.63;;;4.50;99.90;;;;;;5062930;28;20686;-42
2021/12/04 04:35:37;;;;;;;35.33;19.07;;;4.50;99.90;;;;;;5058770;28;20295;-43
2021/12/04 04:38:14;;;;;;;33.83;19.50;;;4.50;99.90;;;;;;5057761;28;20609;-42
2021/12/04 04:57:40;;;;;;;39.23;20.97;;;4.50;99.90;;;;;;5074691;28;20204;-43
2021/12/04 05:00:21;;;;;;;39.93;20.40;;;4.50;99.90;;;;;;5061610;28;20222;-46
2021/12/04 05:11:09;;;;;;;37.00;20.87;;;4.40;99.90;;;;;;5064725;28;20197;-42
2021/12/04 05:13:37;;;;;;;36.80;20.43;;;4.40;99.90;;;;;;5049200;28;20294;-44
2021/12/04 05:16:12;;;;;;;38.83;21.60;;;4.50;99.90;;;;;;5065066;28;20209;-43
2021/12/04 05:18:43;;;;;;;38.70;22.10;;;4.40;99.90;;;;;;5060320;28;21182;-45
2021/12/04 05:21:12;;;;;;;38.60;21.87;;;4.40;99.90;;;;;;5064733;28;20222;-42
2021/12/04 05:23:43;;;;;;;35.93;21.93;;;4.40;99.90;;;;;;5062463;28;20311;-46
2021/12/04 05:26:12;;;;;;;41.43;21.80;;;4.50;99.90;;;;;;5059567;28;20210;-45
2021/12/04 05:28:39;;;;;;;42.90;21.77;;;4.40;99.90;;;;;;5062595;28;20316;-44
2021/12/04 05:31:05;;;;;;;39.50;22.17;;;4.40;99.90;;;;;;5052338;28;20682;-44
2021/12/04 05:33:32;;;;;;;38.67;21.37;;;4.50;99.90;;;;;;5059011;28;20423;-45
2021/12/04 05:35:59;;;;;;;36.10;21.60;;;4.40;99.90;;;;;;5076981;28;20198;-46
2021/12/04 05:38:26;;;;;;;37.37;20.47;;;4.50;99.90;;;;;;5081002;28;20929;-43
2021/12/04 05:40:54;;;;;;;32.97;19.70;;;4.50;99.90;;;;;;5066084;28;20202;-42
2021/12/04 05:43:23;;;;;;;40.23;20.47;;;4.50;99.90;;;;;;5059949;28;20205;-43
2021/12/04 05:45:55;;;;;;;37.73;20.70;;;4.50;99.90;;;;;;5036113;28;20211;-43
2021/12/04 05:48:29;;;;;;;34.57;21.00;;;4.50;99.90;;;;;;5051306;28;20226;-45
2021/12/04 05:51:19;;;;;;;37.70;22.37;;;4.40;99.90;;;;;;5055373;28;20222;-46
2021/12/04 05:56:37;;;;;;;31.27;19.97;;;4.50;99.90;;;;;;5037976;28;20263;-43
2021/12/04 05:59:05;;;;;;;36.97;20.93;;;4.50;99.90;;;;;;5080232;28;20324;-47
2021/12/04 06:01:32;;;;;;;34.47;21.33;;;4.50;99.90;;;;;;5039650;28;20214;-43
2021/12/04 06:03:59;;;;;;;33.77;21.03;;;4.50;99.90;;;;;;5055797;28;20202;-44
2021/12/04 06:06:26;;;;;;;31.03;18.80;;;4.50;99.90;;;;;;5056637;28;20207;-45
2021/12/04 06:08:53;;;;;;;29.67;18.67;;;4.50;99.90;;;;;;5053406;28;20219;-43
2021/12/04 06:11:19;;;;;;;36.20;19.17;;;4.50;99.90;;;;;;5057391;28;20210;-42
2021/12/04 06:13:48;;;;;;;32.60;20.33;;;4.40;99.90;;;;;;5059361;28;20632;-42
2021/12/04 06:16:15;;;;;;;34.80;19.50;;;4.40;99.90;;;;;;5055659;28;20726;-44
2021/12/04 06:18:45;;;;;;;35.10;20.37;;;4.40;99.90;;;;;;5028921;28;20246;-50
2021/12/04 06:23:56;;;;;;;35.73;18.77;;;4.40;99.90;;;;;;5052628;28;20673;-44
2021/12/04 06:26:23;;;;;;;33.53;20.40;;;4.40;99.90;;;;;;5057580;28;20206;-44
2021/12/04 06:28:51;;;;;;;36.30;19.37;;;4.40;99.90;;;;;;5060017;28;20617;-43
2021/12/04 06:31:18;;;;;;;37.70;19.60;;;4.30;99.90;;;;;;5061295;28;20198;-43
2021/12/04 06:33:45;;;;;;;35.87;20.37;;;4.30;99.90;;;;;;5042463;28;20211;-45
2021/12/04 06:36:11;;;;;;;39.17;20.90;;;4.30;99.90;;;;;;5065094;28;20198;-44
2021/12/04 06:38:38;;;;;;;38.27;20.57;;;4.30;99.90;;;;;;5066131;28;20237;-43
2021/12/04 06:41:06;;;;;;;36.10;20.13;;;4.40;99.90;;;;;;5052478;28;20234;-45
2021/12/04 06:43:34;;;;;;;32.67;19.83;;;4.30;99.90;;;;;;5063925;28;20203;-45
2021/12/04 06:46:04;;;;;;;35.90;19.67;;;4.30;99.90;;;;;;5058189;28;20195;-46
2021/12/04 06:48:39;;;;;;;39.90;20.23;;;4.30;99.90;;;;;;5046158;28;20641;-42
2021/12/04 06:51:11;;;;;;;35.43;19.63;;;4.30;99.90;;;;;;5053907;28;20206;-43
2021/12/04 06:53:42;;;;;;;36.63;21.77;;;4.30;99.90;;;;;;5060499;28;20911;-44
2021/12/04 06:56:11;;;;;;;36.83;22.00;;;4.30;99.90;;;;;;5049378;28;20520;-43
2021/12/04 06:58:38;;;;;;;36.93;20.07;;;4.30;99.90;;;;;;5055701;28;20272;-42
2021/12/04 07:01:07;;;;;;;33.43;18.90;;;4.30;99.90;;;;;;5067022;28;20301;-42
2021/12/04 07:03:34;;;;;;;37.13;18.87;;;4.30;99.90;;;;;;5061720;28;20203;-43
2021/12/04 07:06:01;;;;;;;39.23;19.30;;;4.30;99.90;;;;;;5036533;28;20779;-42
2021/12/04 07:08:27;;;;;;;35.03;19.53;;;4.30;99.90;;;;;;5059074;28;20226;-42
2021/12/04 07:10:54;;;;;;;32.90;19.70;;;4.30;99.90;;;;;;5056893;28;20195;-47
2021/12/04 07:13:20;;;;;;;39.73;20.90;;;4.30;99.90;;;;;;5057087;28;20186;-43
2021/12/04 07:15:48;;;;;;;33.70;19.53;;;4.40;99.90;;;;;;5059454;28;20281;-42
2021/12/04 07:18:16;;;;;;;36.23;18.47;;;4.30;99.90;;;;;;5067767;28;20224;-42
2021/12/04 07:20:42;;;;;;;33.70;19.30;;;4.30;99.90;;;;;;5042344;28;20222;-42
2021/12/04 07:23:09;;;;;;;33.43;17.60;;;4.30;99.90;;;;;;5062505;28;20222;-42
2021/12/04 07:25:36;;;;;;;32.03;17.90;;;4.30;99.90;;;;;;5060698;28;20210;-46
2021/12/04 07:28:03;;;;;;;32.57;18.47;;;4.30;99.90;;;;;;5056746;28;20221;-44
2021/12/04 07:30:29;;;;;;;33.47;18.80;;;4.40;99.90;;;;;;5062971;28;20214;-44
2021/12/04 07:32:56;;;;;;;32.60;18.17;;;4.40;99.90;;;;;;5061214;28;20213;-43
2021/12/04 07:35:24;;;;;;;25.87;17.57;;;4.40;99.90;;;;;;5040672;28;20206;-43
2021/12/04 07:37:51;;;;;;;29.30;18.10;;;4.40;99.90;;;;;;5057199;28;20233;-45
2021/12/04 07:40:18;;;;;;;32.40;17.50;;;4.40;99.90;;;;;;5070192;28;20717;-42
2021/12/04 07:42:44;;;;;;;27.03;17.60;;;4.40;99.90;;;;;;5054139;28;20210;-42
2021/12/04 07:45:11;;;;;;;28.50;16.80;;;4.40;99.90;;;;;;5059021;28;20203;-45
2021/12/04 07:47:38;;;;;;;31.97;17.47;;;4.40;99.90;;;;;;5067826;28;20230;-42
2021/12/04 07:50:06;;;;;;;29.07;16.90;;;4.40;99.90;;;;;;5046293;28;20202;-44
2021/12/04 07:52:35;;;;;;;25.50;16.37;;;4.40;99.90;;;;;;5055971;28;20199;-49
2021/12/04 07:55:02;;;;;;;25.27;16.00;;;4.40;99.90;;;;;;5061532;28;20333;-44
2021/12/04 07:57:28;;;;;;;24.90;16.40;;;4.40;99.90;;;;;;5058969;28;20252;-47
2021/12/04 07:59:55;;;;;;;24.43;15.17;;;4.40;99.90;;;;;;5055218;28;20226;-45
2021/12/04 08:02:22;;;;;;;26.10;16.70;;;4.40;99.90;;;;;;5071927;28;20217;-47
2021/12/04 08:04:49;;;;;;;24.40;15.63;;;4.50;99.90;;;;;;5059241;28;20204;-47
2021/12/04 08:07:15;;;;;;;25.83;16.17;;;4.50;99.90;;;;;;5042800;28;20213;-43
2021/12/04 08:09:43;;;;;;;24.67;15.47;;;4.50;99.90;;;;;;5055549;28;20205;-44
2021/12/04 08:12:10;;;;;;;23.03;14.87;;;4.50;99.90;;;;;;5062202;28;20210;-42
2021/12/04 08:14:38;;;;;;;22.83;14.90;;;4.50;99.90;;;;;;5056345;28;20206;-45
2021/12/04 08:17:05;;;;;;;23.47;15.27;;;4.50;99.90;;;;;;5074154;28;20186;-42
2021/12/04 08:19:32;;;;;;;27.20;16.47;;;4.50;99.90;;;;;;5070723;28;20221;-43
2021/12/04 08:21:59;;;;;;;17.80;13.27;;;4.50;99.90;;;;;;5039927;28;22152;-43
2021/12/04 08:24:26;;;;;;;21.93;14.43;;;4.50;99.90;;;;;;5048141;28;20663;-44
2021/12/04 08:26:54;;;;;;;21.53;14.10;;;4.50;99.90;;;;;;5056985;28;20780;-44
2021/12/04 08:29:21;;;;;;;21.40;14.90;;;4.50;99.90;;;;;;5056960;28;20233;-43
2021/12/04 08:31:47;;;;;;;24.30;14.40;;;4.50;99.90;;;;;;5057810;28;20210;-44
2021/12/04 08:34:14;;;;;;;21.10;14.40;;;4.50;99.90;;;;;;5056311;28;20686;-44
2021/12/04 08:36:41;;;;;;;22.70;14.73;;;4.50;99.90;;;;;;5055394;28;20191;-44
2021/12/04 08:39:08;;;;;;;20.20;14.63;;;4.50;99.90;;;;;;5045937;28;20234;-43
2021/12/04 08:41:35;;;;;;;21.87;14.33;;;4.60;99.90;;;;;;5062161;28;20187;-42
2021/12/04 08:44:04;;;;;;;22.67;14.97;;;4.60;99.90;;;;;;5057059;28;20210;-43
2021/12/04 08:46:31;;;;;;;24.63;17.15;;;4.60;99.90;;;;;;5061016;28;20452;-44
2021/12/04 08:48:58;;;;;;;18.83;13.13;;;4.70;99.90;;;;;;5072268;28;20246;-43
2021/12/04 08:51:25;;;;;;;22.87;13.53;;;4.70;99.90;;;;;;5063130;28;20191;-44
2021/12/04 08:53:53;;;;;;;18.87;12.97;;;4.70;99.90;;;;;;5050081;28;20217;-43
2021/12/04 08:56:20;;;;;;;22.43;14.13;;;4.60;99.90;;;;;;5059226;28;20210;-47
2021/12/04 08:58:47;;;;;;;20.87;13.33;;;4.60;99.90;;;;;;5047204;28;21229;-45
2021/12/04 09:01:23;;;;;;;21.03;12.00;;;4.70;99.90;;;;;;5061488;28;20579;-44
2021/12/04 09:03:52;;;;;;;18.83;12.00;;;4.60;99.90;;;;;;5061375;28;20207;-43
2021/12/04 09:06:20;;;;;;;18.47;12.43;;;4.60;99.90;;;;;;5049181;28;20659;-44
2021/12/04 09:08:47;;;;;;;16.13;11.33;;;4.50;99.90;;;;;;5044309;28;20367;-47
2021/12/04 09:11:20;;;;;;;19.67;12.40;;;4.60;99.90;;;;;;5058581;28;20195;-42
2021/12/04 09:13:48;;;;;;;19.43;13.13;;;4.60;99.90;;;;;;5062520;28;20298;-44
2021/12/04 09:16:17;;;;;;;20.10;13.30;;;4.60;99.90;;;;;;5059715;28;20988;-45
2021/12/04 09:18:44;;;;;;;19.73;12.10;;;4.60;99.90;;;;;;5059514;28;20225;-41
2021/12/04 09:21:11;;;;;;;18.53;11.70;;;4.60;99.90;;;;;;5066272;28;20242;-44
2021/12/04 09:23:40;;;;;;;18.37;12.73;;;4.70;99.90;;;;;;5057496;28;20319;-42
2021/12/04 09:26:11;;;;;;;20.07;12.67;;;4.70;99.90;;;;;;5047400;28;20663;-41
2021/12/04 09:28:45;;;;;;;19.10;13.17;;;4.70;99.90;;;;;;5065017;28;20220;-46
2021/12/04 09:31:25;;;;;;;19.30;13.27;;;4.70;99.90;;;;;;5059802;28;20273;-41
2021/12/04 09:34:20;;;;;;;24.43;14.83;;;4.80;99.90;;;;;;5065111;28;20671;-42
2021/12/04 10:01:53;;;;;;;20.80;13.67;;;5.00;99.90;;;;;;5044443;28;20306;-46
2021/12/04 10:04:52;;;;;;;18.13;12.90;;;5.00;99.90;;;;;;5059594;28;20186;-47
2021/12/04 10:13:18;;;;;;;22.23;14.27;;;5.10;99.90;;;;;;5007960;28;20220;-43
2021/12/04 10:18:50;;;;;;;22.17;14.27;;;5.00;99.90;;;;;;5063699;28;20230;-45
2021/12/04 10:21:34;;;;;;;23.93;14.27;;;5.00;99.90;;;;;;5073987;28;20222;-44
2021/12/04 10:32:29;;;;;;;22.90;15.23;;;5.10;99.90;;;;;;5057179;28;20317;-43
2021/12/04 10:35:00;;;;;;;20.00;13.93;;;5.00;99.90;;;;;;5054073;28;20202;-41
2021/12/04 10:37:29;;;;;;;22.10;13.73;;;5.00;99.90;;;;;;5053101;28;20218;-43
2021/12/04 10:40:02;;;;;;;20.60;13.43;;;5.00;99.90;;;;;;5059891;28;20301;-43
2021/12/04 10:42:33;;;;;;;20.63;14.60;;;5.00;99.90;;;;;;5055013;28;20202;-42
2021/12/04 10:45:00;;;;;;;18.60;13.30;;;4.90;99.90;;;;;;5045764;28;20570;-42
2021/12/04 10:47:28;;;;;;;16.30;13.43;;;4.90;99.90;;;;;;5057775;28;20946;-42
2021/12/04 10:50:07;;;;;;;19.87;13.23;;;4.90;99.90;;;;;;5056050;28;20985;-48
2021/12/04 10:52:47;;;;;;;20.63;14.17;;;4.90;99.90;;;;;;5055107;28;20201;-43
2021/12/04 10:55:19;;;;;;;23.10;15.13;;;4.90;99.90;;;;;;5060086;28;20610;-43
2021/12/04 10:58:22;;;;;;;19.47;14.10;;;4.90;99.90;;;;;;5043168;28;20964;-47
2021/12/04 11:00:57;;;;;;;21.50;13.40;;;4.90;99.90;;;;;;5044540;28;20226;-45
2021/12/04 11:03:33;;;;;;;19.10;12.43;;;4.80;99.90;;;;;;5052390;28;20277;-46
2021/12/04 11:06:35;;;;;;;16.87;12.13;;;4.80;99.90;;;;;;5054132;28;20210;-46
2021/12/04 11:23:37;;;;;;;15.63;10.50;;;4.70;99.90;;;;;;5050772;28;20202;-43
2021/12/04 11:40:11;;;;;;;16.77;10.33;;;4.80;99.90;;;;;;5029999;28;20277;-43
2021/12/04 11:42:41;;;;;;;14.63;10.47;;;4.80;99.90;;;;;;5064316;28;20244;-44
2021/12/04 11:45:17;;;;;;;17.90;11.60;;;4.80;99.90;;;;;;5041689;28;20973;-43
2021/12/04 11:47:47;;;;;;;14.73;10.77;;;4.80;99.90;;;;;;5049618;28;20236;-45
2021/12/04 11:50:20;;;;;;;14.03;10.50;;;4.80;99.90;;;;;;5052896;28;20196;-41
2021/12/04 11:52:49;;;;;;;13.50;9.83;;;4.90;99.90;;;;;;5061090;28;20195;-42
2021/12/04 11:55:19;;;;;;;14.07;10.27;;;4.90;99.90;;;;;;5054145;28;20205;-45
2021/12/04 11:57:48;;;;;;;12.90;9.57;;;4.90;99.90;;;;;;5058753;28;20716;-43
2021/12/04 12:00:23;;;;;;;15.97;9.80;;;4.80;99.90;;;;;;5037059;28;20295;-45
2021/12/04 12:02:51;;;;;;;14.50;10.23;;;4.90;99.90;;;;;;5057267;28;20667;-44
2021/12/04 12:05:20;;;;;;;13.27;9.77;;;5.00;99.90;;;;;;5055617;28;20198;-48
2021/12/04 12:07:55;;;;;;;14.33;9.87;;;4.90;99.90;;;;;;5061874;28;20218;-45
2021/12/04 12:10:25;;;;;;;16.27;10.80;;;5.00;99.90;;;;;;5063961;28;20392;-45
2021/12/04 12:12:54;;;;;;;17.20;10.27;;;5.00;99.90;;;;;;5065432;28;20209;-43
2021/12/04 12:15:29;;;;;;;13.77;10.60;;;5.00;99.90;;;;;;5053330;28;20908;-47
2021/12/04 12:17:56;;;;;;;13.47;9.30;;;5.00;99.90;;;;;;5055163;28;20217;-43
2021/12/04 12:20:40;;;;;;;14.73;10.33;;;5.00;99.90;;;;;;5060751;28;20218;-44
2021/12/04 12:23:11;;;;;;;12.30;9.60;;;5.00;99.90;;;;;;5058533;28;20209;-42
2021/12/04 12:25:57;;;;;;;13.83;9.47;;;4.90;99.90;;;;;;5056782;28;20582;-44
2021/12/04 12:37:17;;;;;;;13.10;8.77;;;4.90;99.90;;;;;;5049356;28;20217;-44
2021/12/04 12:39:56;;;;;;;15.37;9.97;;;4.90;99.90;;;;;;5070404;28;20665;-43
2021/12/04 12:42:25;;;;;;;14.77;9.50;;;4.90;99.90;;;;;;5053794;28;20261;-45
2021/12/04 12:44:52;;;;;;;16.17;11.27;;;4.90;99.90;;;;;;5055162;28;20203;-43
2021/12/04 12:47:21;;;;;;;14.63;10.57;;;4.80;99.90;;;;;;5049599;28;20210;-43
2021/12/04 12:49:49;;;;;;;15.43;10.70;;;4.80;99.90;;;;;;5047919;28;20253;-44
2021/12/04 12:52:19;;;;;;;14.93;10.40;;;4.80;99.90;;;;;;5057644;28;20186;-44
2021/12/04 12:54:52;;;;;;;15.60;11.20;;;4.80;99.90;;;;;;5059637;28;20571;-46
2021/12/04 12:57:23;;;;;;;18.50;11.93;;;4.80;99.90;;;;;;5058967;28;20203;-43
2021/12/04 13:11:44;;;;;;;15.97;10.93;;;4.80;99.90;;;;;;5062076;28;20183;-43
2021/12/04 13:14:13;;;;;;;18.27;11.37;;;4.80;99.90;;;;;;5059328;28;20942;-44
2021/12/04 13:16:42;;;;;;;16.93;10.83;;;4.80;99.90;;;;;;5041897;28;20671;-44
2021/12/04 13:19:14;;;;;;;16.27;10.90;;;4.80;99.90;;;;;;5048083;28;20230;-43
2021/12/04 13:21:43;;;;;;;17.53;12.37;;;4.80;99.90;;;;;;5058352;28;20218;-42
2021/12/04 13:24:11;;;;;;;15.93;11.27;;;4.80;99.90;;;;;;5053328;28;20425;-44
2021/12/04 13:26:41;;;;;;;19.13;11.67;;;4.80;99.90;;;;;;5064676;28;20663;-41
2021/12/04 13:29:09;;;;;;;17.87;12.33;;;4.80;99.90;;;;;;5060872;28;20221;-44
2021/12/04 13:31:38;;;;;;;18.27;11.37;;;4.80;99.90;;;;;;5068391;28;20192;-41
2021/12/04 13:34:07;;;;;;;15.90;11.07;;;4.80;99.90;;;;;;5040847;28;20336;-45
2021/12/04 13:36:35;;;;;;;16.63;11.70;;;4.80;99.90;;;;;;5056718;28;20191;-46
2021/12/04 13:39:06;;;;;;;15.43;11.17;;;4.80;99.90;;;;;;5056897;28;20228;-43
2021/12/04 13:41:34;;;;;;;15.47;10.77;;;4.80;99.90;;;;;;5063545;28;20218;-46
2021/12/04 13:44:02;;;;;;;13.83;11.20;;;4.80;99.90;;;;;;5061832;28;20182;-47
2021/12/04 13:46:37;;;;;;;17.43;11.57;;;4.80;99.90;;;;;;5060571;28;20210;-45
2021/12/04 13:49:04;;;;;;;15.80;11.13;;;4.80;99.90;;;;;;5045153;28;20214;-43
2021/12/04 13:51:32;;;;;;;18.20;11.63;;;4.70;99.90;;;;;;5061014;28;20599;-42
2021/12/04 13:54:01;;;;;;;16.57;11.57;;;4.70;99.90;;;;;;5057633;28;20467;-45
2021/12/04 13:56:30;;;;;;;16.47;10.37;;;4.70;99.90;;;;;;5059582;28;20199;-43
2021/12/04 13:58:59;;;;;;;14.37;10.73;;;4.70;99.90;;;;;;5060755;28;20898;-41
2021/12/04 14:01:27;;;;;;;15.27;9.93;;;4.70;99.90;;;;;;5058206;28;20214;-41
2021/12/04 14:03:55;;;;;;;16.43;10.77;;;4.70;99.90;;;;;;5048942;28;20207;-41
2021/12/04 14:06:22;;;;;;;14.47;10.60;;;4.60;99.90;;;;;;5058977;28;20218;-42
2021/12/04 14:08:58;;;;;;;12.83;9.67;;;4.70;99.90;;;;;;5055658;28;20215;-42
2021/12/04 14:11:35;;;;;;;14.00;9.93;;;4.70;99.90;;;;;;5060700;28;20194;-41
2021/12/04 14:14:10;;;;;;;12.60;9.60;;;4.70;99.90;;;;;;5061801;28;20191;-42
2021/12/04 14:16:37;;;;;;;13.93;11.40;;;4.70;99.90;;;;;;5053723;28;20449;-41
2021/12/04 14:19:12;;;;;;;14.52;11.15;;;4.80;99.90;;;;;;5051055;28;20434;-42
2021/12/04 14:21:38;;;;;;;11.57;9.50;;;4.80;99.90;;;;;;5060197;28;20249;-42
2021/12/04 14:24:05;;;;;;;14.27;10.50;;;4.80;99.90;;;;;;5057083;28;20213;-43
2021/12/04 14:26:34;;;;;;;11.13;8.80;;;4.80;99.90;;;;;;5058322;28;20195;-42
2021/12/04 14:29:00;;;;;;;12.17;8.13;;;4.80;99.90;;;;;;5062741;28;20275;-42
2021/12/04 14:31:27;;;;;;;10.87;8.63;;;4.80;99.90;;;;;;5065141;28;20183;-42
2021/12/04 14:33:53;;;;;;;9.67;7.93;;;4.80;99.90;;;;;;5044056;28;20532;-42
2021/12/04 14:36:22;;;;;;;12.00;8.90;;;4.70;99.90;;;;;;5064036;28;20195;-43
2021/12/04 14:38:49;;;;;;;9.20;7.97;;;4.70;99.90;;;;;;5048842;28;20521;-43
2021/12/04 14:41:16;;;;;;;9.27;8.27;;;4.70;99.90;;;;;;5056004;28;20246;-42
2021/12/04 14:43:45;;;;;;;8.57;7.27;;;4.70;99.90;;;;;;5054156;28;20202;-43
2021/12/04 14:46:13;;;;;;;10.43;8.37;;;4.70;99.90;;;;;;5062081;28;20201;-43
2021/12/04 14:48:42;;;;;;;10.20;7.53;;;4.70;99.90;;;;;;5048621;28;20222;-43
2021/12/04 14:51:13;;;;;;;10.07;8.07;;;4.70;99.90;;;;;;5062559;28;20199;-42
2021/12/04 14:53:45;;;;;;;9.63;7.60;;;4.70;99.90;;;;;;5057588;28;20205;-43
2021/12/04 14:56:12;;;;;;;12.23;8.27;;;4.70;99.90;;;;;;5048594;28;20207;-42
2021/12/04 14:58:39;;;;;;;10.87;8.60;;;4.70;99.90;;;;;;5055060;28;20225;-46
2021/12/04 15:01:10;;;;;;;10.70;8.60;;;4.70;99.90;;;;;;5057456;28;20300;-42
2021/12/04 15:03:40;;;;;;;10.90;8.77;;;4.70;99.90;;;;;;5057820;28;20205;-42
2021/12/04 15:06:10;;;;;;;10.83;8.30;;;4.70;99.90;;;;;;5049242;28;20206;-43
2021/12/04 15:08:39;;;;;;;13.67;9.43;;;4.70;99.90;;;;;;5059215;28;20248;-42
2021/12/04 15:11:09;;;;;;;16.57;9.73;;;4.70;99.90;;;;;;5054902;28;20206;-45